createdAt,value
2019-05-02T00:00:21.444Z,97485.00
2019-05-02T00:05:32.128Z,97472.00
2019-05-02T00:10:39.697Z,97479.00
2019-05-02T00:15:48.487Z,97471.00
2019-05-02T00:20:57.195Z,97464.00
2019-05-02T00:26:04.620Z,97466.00
2019-05-02T00:31:12.950Z,97457.00
2019-05-02T00:36:21.434Z,97455.00
2019-05-02T00:41:33.224Z,97457.00
2019-05-02T00:46:40.350Z,97450.00
2019-05-02T00:51:47.638Z,97447.00
2019-05-02T00:56:54.864Z,97445.00
2019-05-02T01:02:20.793Z,97431.00
2019-05-02T01:07:28.915Z,97427.00
2019-05-02T01:12:40.041Z,97422.00
2019-05-02T01:17:45.231Z,97417.00
2019-05-02T01:22:53.635Z,97409.00
2019-05-02T01:28:12.754Z,97404.00
2019-05-02T01:33:26.285Z,97406.00
2019-05-02T01:38:35.108Z,97402.00
2019-05-02T01:43:43.035Z,97397.00
2019-05-02T01:48:50.248Z,97404.00
2019-05-02T01:53:57.425Z,97393.00
2019-05-02T01:59:04.701Z,97380.00
2019-05-02T02:04:16.182Z,97386.00
2019-05-02T02:09:21.595Z,97375.00
2019-05-02T02:14:28.817Z,97382.00
2019-05-02T02:19:48.038Z,97380.00
2019-05-02T02:25:13.174Z,97374.00
2019-05-02T02:30:24.449Z,97359.00
2019-05-02T02:35:30.240Z,97373.00
2019-05-02T02:40:37.477Z,97366.00
2019-05-02T02:45:59.802Z,97367.00
2019-05-02T02:51:08.109Z,97362.00
2019-05-02T02:56:16.445Z,97360.00
2019-05-02T03:01:28.868Z,97362.00
2019-05-02T03:06:38.258Z,97351.00
2019-05-02T03:12:04.269Z,97367.00
2019-05-02T03:17:11.040Z,97354.00
2019-05-02T03:22:18.327Z,97354.00
2019-05-02T03:27:29.670Z,97359.00
2019-05-02T03:32:37.670Z,97361.00
2019-05-02T03:37:51.187Z,97347.00
2019-05-02T03:42:53.794Z,97356.00
2019-05-02T03:48:02.674Z,97349.00
2019-05-02T03:53:11.183Z,97356.00
2019-05-02T03:58:19.595Z,97353.00
2019-05-02T04:03:27.200Z,97351.00
2019-05-02T04:08:36.680Z,97352.00
2019-05-02T04:13:44.120Z,97356.00
2019-05-02T04:18:55.729Z,97359.00
2019-05-02T04:24:12.616Z,97358.00
2019-05-02T04:29:13.276Z,97354.00
2019-05-02T04:34:20.995Z,97354.00
2019-05-02T04:39:29.206Z,97347.00
2019-05-02T04:44:59.777Z,97365.00
2019-05-02T04:49:51.342Z,97371.00
2019-05-02T04:55:08.789Z,97365.00
2019-05-02T05:00:11.497Z,97365.00
2019-05-02T05:05:17.336Z,97369.00
2019-05-02T05:10:27.694Z,97369.00
2019-05-02T05:15:41.231Z,97373.00
2019-05-02T05:20:45.966Z,97374.00
2019-05-02T05:25:55.688Z,97371.00
2019-05-02T05:31:07.727Z,97381.00
2019-05-02T05:36:19.707Z,97369.00
2019-05-02T05:41:27.813Z,97367.00
2019-05-02T05:46:38.692Z,97374.00
2019-05-02T05:51:44.264Z,97364.00
2019-05-02T05:56:51.494Z,97364.00
2019-05-02T06:02:05.311Z,97362.00
2019-05-02T06:07:09.550Z,97365.00
2019-05-02T06:12:17.332Z,97356.00
2019-05-02T06:17:28.532Z,97365.00
2019-05-02T06:22:37.209Z,97350.00
2019-05-02T06:27:44.444Z,97349.00
2019-05-02T06:32:54.919Z,97349.00
2019-05-02T06:38:01.209Z,97360.00
2019-05-02T06:43:09.714Z,97349.00
2019-05-02T06:48:19.168Z,97345.00
2019-05-02T06:53:26.439Z,97330.00
2019-05-02T06:58:37.070Z,97342.00
2019-05-02T07:03:46.362Z,97325.00
2019-05-02T07:08:54.986Z,97325.00
2019-05-02T07:14:13.195Z,97323.00
2019-05-02T07:19:16.495Z,97322.00
2019-05-02T07:24:25.293Z,97319.00
2019-05-02T07:29:34.013Z,97317.00
2019-05-02T07:34:44.276Z,97312.00
2019-05-02T07:39:55.567Z,97341.00
2019-05-02T07:45:09.179Z,97327.00
2019-05-02T07:50:14.838Z,97323.00
2019-05-02T07:55:22.179Z,97334.00
2019-05-02T08:00:32.116Z,97323.00
2019-05-02T08:05:39.475Z,97329.00
2019-05-02T08:10:47.117Z,97322.00
2019-05-02T08:15:54.360Z,97328.00
2019-05-02T08:21:01.567Z,97318.00
2019-05-02T08:26:10.102Z,97319.00
2019-05-02T08:31:18.861Z,97315.00
2019-05-02T08:36:28.169Z,97317.00
2019-05-02T08:41:36.074Z,97310.00
2019-05-02T08:46:46.134Z,97324.00
2019-05-02T08:57:11.978Z,97302.00
2019-05-02T09:02:21.149Z,97302.00
2019-05-02T09:07:31.697Z,97306.00
2019-05-02T09:12:43.748Z,97297.00
2019-05-02T09:17:54.820Z,97289.00
2019-05-02T09:22:57.116Z,97290.00
2019-05-02T09:28:05.104Z,97286.00
2019-05-02T09:33:12.268Z,97281.00
2019-05-02T09:38:19.500Z,97287.00
2019-05-02T09:43:29.336Z,97279.00
2019-05-02T09:48:36.600Z,97274.00
2019-05-02T09:53:43.873Z,97272.00
2019-05-02T09:58:55.069Z,97263.00
2019-05-02T10:04:02.156Z,97256.00
2019-05-02T10:09:12.082Z,97260.00
2019-05-02T10:14:22.402Z,97240.00
2019-05-02T10:19:32.701Z,97244.00
2019-05-02T10:24:47.620Z,97249.00
2019-05-02T10:29:57.266Z,97240.00
2019-05-02T10:35:07.844Z,97245.00
2019-05-02T10:40:18.601Z,97232.00
2019-05-02T10:45:25.961Z,97230.00
2019-05-02T10:50:47.862Z,97232.00
2019-05-02T10:55:55.153Z,97224.00
2019-05-02T11:01:13.138Z,97204.00
2019-05-02T11:06:22.273Z,97215.00
2019-05-02T11:11:32.229Z,97209.00
2019-05-02T11:16:52.629Z,97210.00
2019-05-02T11:22:00.320Z,97213.00
2019-05-02T11:27:08.590Z,97204.00
2019-05-02T11:32:16.042Z,97191.00
2019-05-02T11:37:23.822Z,97201.00
2019-05-02T11:42:32.339Z,97188.00
2019-05-02T11:47:42.291Z,97183.00
2019-05-02T11:52:52.886Z,97182.00
2019-05-02T11:58:07.921Z,97178.00
2019-05-02T12:03:13.136Z,97177.00
2019-05-02T12:08:22.686Z,97164.00
2019-05-02T12:13:32.227Z,97183.00
2019-05-02T12:18:41.900Z,97191.00
2019-05-02T12:23:49.420Z,97180.00
2019-05-02T12:28:56.687Z,97193.00
2019-05-02T12:34:06.461Z,97165.00
2019-05-02T12:39:13.709Z,97159.00
2019-05-02T12:44:22.359Z,97170.00
2019-05-02T12:49:32.342Z,97178.00
2019-05-02T12:54:39.396Z,97186.00
2019-05-02T12:59:46.816Z,97160.00
2019-05-02T13:04:53.983Z,97176.00
2019-05-02T13:10:02.423Z,97157.00
2019-05-02T13:15:12.732Z,97162.00
2019-05-02T13:20:24.738Z,97149.00
2019-05-02T13:25:36.751Z,97148.00
2019-05-02T13:30:46.472Z,97155.00
2019-05-02T13:35:53.504Z,97160.00
2019-05-02T13:41:02.613Z,97153.00
2019-05-02T13:46:12.661Z,97158.00
2019-05-02T13:51:22.324Z,97137.00
2019-05-02T13:56:49.372Z,97147.00
2019-05-02T14:01:56.711Z,97148.00
2019-05-02T14:07:07.713Z,97122.00
2019-05-02T14:12:21.899Z,97149.00
2019-05-02T14:17:30.114Z,97133.00
2019-05-02T14:22:37.444Z,97132.00
2019-05-02T14:27:47.063Z,97137.00
2019-05-02T14:32:53.703Z,97124.00
2019-05-02T14:38:13.965Z,97130.00
2019-05-02T14:43:46.197Z,97129.00
2019-05-02T14:48:52.411Z,97127.00
2019-05-02T14:54:07.713Z,97131.00
2019-05-02T14:59:17.936Z,97127.00
2019-05-02T15:04:24.067Z,97120.00
2019-05-02T15:09:33.384Z,97124.00
2019-05-02T15:14:43.234Z,97117.00
2019-05-02T15:19:52.621Z,97122.00
2019-05-02T15:25:02.728Z,97120.00
2019-05-02T15:30:11.010Z,97125.00
2019-05-02T15:35:23.048Z,97114.00
2019-05-02T15:45:42.014Z,97131.00
2019-05-02T15:50:52.225Z,97113.00
2019-05-02T15:55:57.971Z,97121.00
2019-05-02T16:01:12.003Z,97123.00
2019-05-02T16:06:24.343Z,97116.00
2019-05-02T16:11:32.077Z,97110.00
2019-05-02T16:16:43.560Z,97105.00
2019-05-02T16:21:55.116Z,97108.00
2019-05-02T16:27:03.279Z,97104.00
2019-05-02T16:32:13.375Z,97094.00
2019-05-02T16:37:22.816Z,97093.00
2019-05-02T16:42:32.790Z,97101.00
2019-05-02T16:47:42.316Z,97098.00
2019-05-02T16:52:49.713Z,97089.00
2019-05-02T16:58:02.676Z,97099.00
2019-05-02T17:03:09.340Z,97095.00
2019-05-02T17:08:24.583Z,97096.00
2019-05-02T17:13:35.567Z,97098.00
2019-05-02T17:18:43.357Z,97094.00
2019-05-02T17:23:52.353Z,97094.00
2019-05-02T17:29:02.538Z,97088.00
2019-05-02T17:34:12.544Z,97098.00
2019-05-02T17:39:22.322Z,97100.00
2019-05-02T17:44:29.796Z,97100.00
2019-05-02T17:49:38.467Z,97095.00
2019-05-02T17:54:47.308Z,97098.00
2019-05-02T17:59:54.534Z,97102.00
2019-05-02T18:05:04.116Z,97091.00
2019-05-02T18:10:20.572Z,97101.00
2019-05-02T18:15:23.537Z,97101.00
2019-05-02T18:20:37.196Z,97099.00
2019-05-02T18:25:43.149Z,97096.00
2019-05-02T18:30:52.453Z,97102.00
2019-05-02T18:36:04.240Z,97094.00
2019-05-02T18:41:12.777Z,97103.00
2019-05-02T18:46:22.291Z,97094.00
2019-05-02T18:51:29.828Z,97105.00
2019-05-02T18:56:42.846Z,97106.00
2019-05-02T19:02:04.304Z,97105.00
2019-05-02T19:07:15.865Z,97109.00
2019-05-02T19:12:26.038Z,97099.00
2019-05-02T19:17:31.619Z,97114.00
2019-05-02T19:22:50.549Z,97111.00
2019-05-02T19:27:57.695Z,97109.00
2019-05-02T19:33:06.053Z,97113.00
2019-05-02T19:38:12.312Z,97104.00
2019-05-02T19:43:19.641Z,97113.00
2019-05-02T19:48:33.054Z,97101.00
2019-05-02T19:53:36.774Z,97092.00
2019-05-02T19:58:46.795Z,97094.00
2019-05-02T20:03:56.731Z,97076.00
2019-05-02T20:09:08.317Z,97089.00
2019-05-02T20:14:15.267Z,97086.00
2019-05-02T20:19:26.769Z,97078.00
2019-05-02T20:25:00.304Z,97082.00
2019-05-02T20:30:04.325Z,97085.00
2019-05-02T20:35:12.350Z,97087.00
2019-05-02T20:40:31.903Z,97085.00
2019-05-02T20:45:40.266Z,97075.00
2019-05-02T20:50:48.506Z,97075.00
2019-05-02T20:55:55.806Z,97071.00
2019-05-02T21:01:08.554Z,97063.00
2019-05-02T21:06:36.983Z,97067.00
2019-05-02T21:11:33.612Z,97060.00
2019-05-02T21:16:42.164Z,97069.00
2019-05-02T21:21:52.647Z,97075.00
2019-05-02T21:27:02.043Z,97074.00
2019-05-02T21:32:12.057Z,97074.00
2019-05-02T21:37:19.426Z,97068.00
2019-05-02T21:42:27.643Z,97063.00
2019-05-02T21:47:35.759Z,97061.00
2019-05-02T21:52:48.672Z,97056.00
2019-05-02T21:57:56.531Z,97064.00
2019-05-02T22:03:04.975Z,97066.00
2019-05-02T22:08:14.427Z,97060.00
2019-05-02T22:13:22.243Z,97061.00
2019-05-02T22:18:32.139Z,97052.00
2019-05-02T22:23:39.579Z,97057.00
2019-05-02T22:28:46.805Z,97063.00
2019-05-02T22:33:54.032Z,97069.00
2019-05-02T22:39:22.052Z,97082.00
2019-05-02T22:44:30.088Z,97077.00
2019-05-02T23:08:32.646Z,97094.00
2019-05-02T23:13:39.927Z,97086.00
2019-05-02T23:18:47.723Z,97092.00
2019-05-02T23:24:01.675Z,97100.00
2019-05-02T23:29:10.165Z,97086.00
2019-05-02T23:34:18.483Z,97091.00
2019-05-02T23:39:25.749Z,97094.00
2019-05-02T23:44:33.960Z,97103.00
2019-05-02T23:49:42.729Z,97109.00
2019-05-02T23:54:52.482Z,97098.00
2019-05-02T23:59:58.974Z,97097.00
